Terminal Aerodrome Forecast
Issued by NWS

Current Version | Previous Version | Text Only | Print | Product List | Glossary On
Versions: 1 2 3 4 5 6 7 8 9 10 11 12 13 14 15 16 17 18 19 20
000
FTUS41 KOKX 311732
TAFSWF
TAF
KSWF 311732Z 3118/0124 29010KT P6SM SKC
     FM312300 29007KT P6SM SKC
     FM010200 VRB02KT P6SM FEW050 SCT100
     FM011600 28012G18KT P6SM SCT050 BKN100
     FM012300 29007KT P6SM SCT060
      AMD NOT SKED=

USA.gov is the U.S. government's official web portal to all federal, state and local government web resources and services.